Time;durP1;ratioP1;P1;durP2;ratioP2;P2;SDS_P1;SDS_P2;PMS_P1;PMS_P2;Temp;Humidity;BMP_temperature;BMP_pressure;BME280_temperature;BME280_humidity;BME280_pressure;Samples;Min_cycle;Max_cycle;Signal;HPM_P1;HPM_P2
2023/07/15 00:00:15;;;;;;;5.10;2.50;;;;;;;13.99;74.86;100632.14;103885;278;40132;-72
2023/07/15 00:03:12;;;;;;;4.70;2.30;;;;;;;13.94;75.16;100633.73;103820;278;38419;-73
2023/07/15 00:05:46;;;;;;;3.70;2.20;;;;;;;13.90;75.45;100630.94;103892;278;39564;-72
2023/07/15 00:08:20;;;;;;;8.40;2.00;;;;;;;13.88;75.59;100627.89;103792;278;39062;-74
2023/07/15 00:10:58;;;;;;;4.10;2.10;;;;;;;13.89;75.71;100625.90;103805;278;38463;-73
2023/07/15 00:13:33;;;;;;;3.90;2.40;;;;;;;13.90;75.98;100623.42;103813;278;39398;-72
2023/07/15 00:16:08;;;;;;;4.40;2.20;;;;;;;13.88;76.08;100624.21;103804;278;38736;-74
2023/07/15 00:18:43;;;;;;;4.40;2.10;;;;;;;13.86;76.39;100624.14;103787;278;38288;-73
2023/07/15 00:21:23;;;;;;;5.40;2.30;;;;;;;13.85;76.41;100627.88;103783;278;38244;-73
2023/07/15 00:23:58;;;;;;;5.50;2.30;;;;;;;13.84;76.63;100625.11;103785;267;38266;-70
2023/07/15 00:26:34;;;;;;;3.80;2.50;;;;;;;13.85;76.66;100622.95;103793;278;39390;-77
2023/07/15 00:29:09;;;;;;;3.50;2.40;;;;;;;13.86;76.77;100620.97;103643;280;38431;-73
2023/07/15 00:31:43;;;;;;;6.30;2.70;;;;;;;13.86;76.88;100619.23;103867;278;38389;-71
2023/07/15 00:34:20;;;;;;;3.60;2.40;;;;;;;13.84;77.00;100618.95;103783;278;39385;-72
2023/07/15 00:36:54;;;;;;;4.70;2.40;;;;;;;13.83;77.12;100616.22;103686;280;38394;-73
2023/07/15 00:39:30;;;;;;;4.20;2.20;;;;;;;13.83;77.27;100616.22;103799;278;38409;-72
2023/07/15 00:42:20;;;;;;;5.00;2.90;;;;;;;13.85;77.53;100612.25;103865;278;39385;-73
2023/07/15 00:44:49;;;;;;;3.80;2.70;;;;;;;13.87;77.58;100609.02;103846;278;38253;-76
2023/07/15 00:47:29;;;;;;;6.20;3.30;;;;;;;13.86;77.80;100609.75;103824;278;39462;-73
2023/07/15 00:50:05;;;;;;;6.80;2.70;;;;;;;13.85;78.13;100609.42;103877;278;38404;-72
2023/07/15 00:52:39;;;;;;;4.30;2.80;;;;;;;13.86;78.10;100608.91;103675;279;39424;-72
2023/07/15 00:55:14;;;;;;;5.10;2.50;;;;;;;13.86;78.30;100607.84;103890;279;39827;-73
2023/07/15 00:57:48;;;;;;;6.00;2.90;;;;;;;13.85;78.53;100608.92;103785;278;38317;-74
2023/07/15 01:00:22;;;;;;;3.60;3.10;;;;;;;13.86;78.61;100611.15;103757;278;38696;-73
2023/07/15 01:02:56;;;;;;;5.50;2.80;;;;;;;13.85;78.75;100612.41;103798;278;38236;-73
2023/07/15 01:05:31;;;;;;;6.50;3.00;;;;;;;13.85;78.77;100615.08;103762;278;39385;-73
2023/07/15 01:08:06;;;;;;;4.10;2.40;;;;;;;13.85;78.78;100613.67;103808;278;38422;-73
2023/07/15 01:10:41;;;;;;;4.20;3.00;;;;;;;13.85;78.70;100614.20;103776;278;39011;-73
2023/07/15 01:13:16;;;;;;;4.00;2.80;;;;;;;13.86;78.79;100613.46;103780;278;38465;-74
2023/07/15 01:15:51;;;;;;;5.70;3.30;;;;;;;13.84;78.90;100616.16;103890;278;38515;-74
2023/07/15 01:18:25;;;;;;;5.20;2.90;;;;;;;13.82;78.91;100617.84;103825;278;39979;-75
2023/07/15 01:21:00;;;;;;;4.00;3.00;;;;;;;13.78;78.93;100618.89;103828;278;39866;-72
2023/07/15 01:23:34;;;;;;;3.90;2.90;;;;;;;13.75;79.03;100617.64;103802;278;39628;-72
2023/07/15 01:26:08;;;;;;;5.80;3.10;;;;;;;13.74;79.03;100617.17;103858;278;38854;-74
2023/07/15 01:28:42;;;;;;;5.50;3.10;;;;;;;13.74;79.00;100615.23;103691;278;39419;-74
2023/07/15 01:31:18;;;;;;;7.60;3.50;;;;;;;13.73;79.21;100611.95;103818;278;38318;-74
2023/07/15 01:33:52;;;;;;;5.90;3.30;;;;;;;13.72;79.33;100606.41;103784;278;39465;-74
2023/07/15 01:36:26;;;;;;;6.70;3.10;;;;;;;13.71;79.34;100604.35;103825;278;39390;-74
2023/07/15 01:39:01;;;;;;;6.10;3.00;;;;;;;13.73;79.30;100603.70;103792;278;39458;-72
2023/07/15 01:41:36;;;;;;;4.20;2.80;;;;;;;13.71;79.33;100604.69;103690;278;38261;-75
2023/07/15 01:44:10;;;;;;;5.40;3.20;;;;;;;13.68;79.46;100604.11;103842;278;38305;-74
2023/07/15 01:46:44;;;;;;;3.60;2.70;;;;;;;13.65;79.45;100600.73;103772;279;38223;-74
2023/07/15 01:49:19;;;;;;;6.20;3.40;;;;;;;13.62;79.60;100598.65;103646;279;38373;-73
2023/07/15 01:51:54;;;;;;;6.30;2.80;;;;;;;13.58;79.65;100599.89;103795;278;40011;-74
2023/07/15 01:54:29;;;;;;;4.50;3.30;;;;;;;13.54;79.84;100599.16;103768;278;38546;-72
2023/07/15 01:57:03;;;;;;;7.80;3.40;;;;;;;13.55;80.09;100597.57;103792;279;39976;-73
2023/07/15 01:59:37;;;;;;;4.90;3.30;;;;;;;13.52;80.16;100595.20;103778;278;38729;-73
2023/07/15 02:02:12;;;;;;;6.40;3.20;;;;;;;13.51;80.28;100596.67;103844;278;38353;-73
2023/07/15 02:04:46;;;;;;;3.90;2.90;;;;;;;13.49;80.40;100594.51;103819;278;38524;-74
2023/07/15 02:07:22;;;;;;;3.70;2.90;;;;;;;13.47;80.52;100597.55;103776;278;38271;-73
2023/07/15 02:09:57;;;;;;;5.20;3.20;;;;;;;13.48;80.69;100599.65;103858;278;38509;-73
2023/07/15 02:12:31;;;;;;;4.20;3.30;;;;;;;13.47;80.83;100597.73;103846;278;38259;-75
2023/07/15 02:15:06;;;;;;;4.60;3.10;;;;;;;13.46;81.04;100595.86;103841;278;39852;-70
2023/07/15 02:17:40;;;;;;;5.80;3.40;;;;;;;13.44;81.27;100595.59;103800;278;39994;-71
2023/07/15 02:20:15;;;;;;;7.50;3.60;;;;;;;13.43;81.38;100596.16;103837;278;38511;-73
2023/07/15 02:22:52;;;;;;;5.30;3.00;;;;;;;13.45;81.64;100595.73;103761;278;39262;-73
2023/07/15 02:25:28;;;;;;;5.00;3.10;;;;;;;13.47;81.58;100592.70;103666;279;40976;-72
2023/07/15 02:28:04;;;;;;;4.70;3.10;;;;;;;13.50;81.63;100595.17;103790;278;39390;-73
2023/07/15 02:30:38;;;;;;;5.30;3.40;;;;;;;13.55;81.85;100597.05;103752;278;39465;-74
2023/07/15 02:33:12;;;;;;;4.40;3.30;;;;;;;13.61;81.92;100601.30;103780;278;38299;-74
2023/07/15 02:35:47;;;;;;;5.10;3.50;;;;;;;13.64;81.85;100605.16;103805;278;38243;-73
2023/07/15 02:38:21;;;;;;;4.90;3.40;;;;;;;13.68;81.98;100608.66;103797;278;38209;-73
2023/07/15 02:40:56;;;;;;;5.10;3.50;;;;;;;13.72;82.00;100610.09;103795;278;39711;-71
2023/07/15 02:43:31;;;;;;;5.40;3.50;;;;;;;13.74;82.25;100610.33;103801;278;38760;-74
2023/07/15 02:46:06;;;;;;;4.60;3.10;;;;;;;13.80;82.39;100606.04;103831;278;39357;-73
2023/07/15 02:48:41;;;;;;;4.10;3.40;;;;;;;13.86;82.23;100614.47;103707;278;175057;-74
2023/07/15 02:51:15;;;;;;;6.00;3.30;;;;;;;13.93;82.62;100608.89;103855;278;39121;-74
2023/07/15 02:53:49;;;;;;;5.30;2.80;;;;;;;14.01;82.72;100608.20;103858;278;39520;-74
2023/07/15 02:56:25;;;;;;;5.90;3.20;;;;;;;14.09;82.66;100610.92;103871;278;39628;-71
2023/07/15 02:58:59;;;;;;;7.50;3.40;;;;;;;14.19;82.45;100613.41;103824;278;39392;-73
2023/07/15 03:01:34;;;;;;;7.20;3.80;;;;;;;14.29;82.68;100613.98;103827;278;39658;-77
2023/07/15 03:04:08;;;;;;;8.90;3.80;;;;;;;14.37;82.30;100614.63;103787;278;38464;-74
2023/07/15 03:06:43;;;;;;;9.00;3.50;;;;;;;14.43;82.19;100613.63;103770;278;39032;-72
2023/07/15 03:09:17;;;;;;;10.10;3.80;;;;;;;14.49;81.94;100614.06;103672;279;38552;-75
2023/07/15 03:11:52;;;;;;;15.70;3.80;;;;;;;14.53;81.87;100608.95;103671;279;38266;-74
2023/07/15 03:14:26;;;;;;;19.20;4.40;;;;;;;14.56;81.81;100607.55;103685;279;38315;-71
2023/07/15 03:17:02;;;;;;;21.70;4.30;;;;;;;14.60;81.97;100602.25;103666;279;38651;-72
2023/07/15 03:19:37;;;;;;;9.80;3.70;;;;;;;14.64;82.04;100602.08;103690;279;39665;-73
2023/07/15 03:22:11;;;;;;;8.70;3.30;;;;;;;14.69;82.35;100601.98;103695;271;40381;-74
2023/07/15 03:24:46;;;;;;;9.70;4.00;;;;;;;14.76;82.41;100599.15;103693;279;38233;-72
2023/07/15 03:27:20;;;;;;;7.90;3.50;;;;;;;14.86;82.33;100597.26;103672;279;39694;-71
2023/07/15 03:29:54;;;;;;;7.20;3.90;;;;;;;14.92;82.18;100600.40;103678;279;39080;-73
2023/07/15 03:32:28;;;;;;;7.40;3.10;;;;;;;14.98;81.98;100599.77;103701;279;39418;-73
2023/07/15 03:35:03;;;;;;;10.40;3.70;;;;;;;15.06;82.10;100602.52;103697;279;38705;-74
2023/07/15 03:37:37;;;;;;;24.00;4.50;;;;;;;15.12;81.81;100600.60;103645;279;175004;-74
2023/07/15 03:40:13;;;;;;;17.70;4.40;;;;;;;15.19;81.84;100600.95;103770;279;38739;-74
2023/07/15 03:42:47;;;;;;;21.40;5.50;;;;;;;15.26;81.66;100603.23;103574;279;39779;-75
2023/07/15 03:45:21;;;;;;;19.50;4.40;;;;;;;15.31;81.55;100603.65;103736;279;38496;-74
2023/07/15 03:47:55;;;;;;;15.00;4.20;;;;;;;15.38;81.39;100608.86;103711;279;38240;-73
2023/07/15 03:50:30;;;;;;;19.20;4.50;;;;;;;15.45;81.36;100607.08;103695;279;38234;-74
2023/07/15 03:53:04;;;;;;;18.40;5.30;;;;;;;15.50;81.45;100610.33;103675;279;38246;-74
2023/07/15 03:55:39;;;;;;;20.20;4.40;;;;;;;15.59;81.99;100607.36;103694;279;38519;-74
2023/07/15 03:58:12;;;;;;;19.50;4.30;;;;;;;15.70;81.82;100612.09;103657;279;39882;-72
2023/07/15 04:00:47;;;;;;;18.00;4.60;;;;;;;15.76;81.84;100611.77;103653;279;39441;-73
2023/07/15 04:03:21;;;;;;;15.10;4.10;;;;;;;15.82;81.91;100605.61;103689;279;38238;-73
2023/07/15 04:05:58;;;;;;;11.90;4.20;;;;;;;15.89;81.67;100607.47;103691;279;38340;-74
2023/07/15 04:08:33;;;;;;;10.80;4.90;;;;;;;15.97;81.80;100605.97;103549;279;41315;-74
2023/07/15 04:11:11;;;;;;;10.00;4.30;;;;;;;16.17;82.42;100610.86;103767;279;38243;-73
2023/07/15 04:13:46;;;;;;;7.60;3.60;;;;;;;16.44;82.14;100610.66;103671;279;38308;-75
2023/07/15 04:16:24;;;;;;;6.50;3.40;;;;;;;16.57;81.82;100607.48;103669;279;38608;-72
2023/07/15 04:19:03;;;;;;;6.60;3.40;;;;;;;16.75;81.28;100612.02;103675;279;38528;-74
2023/07/15 04:21:37;;;;;;;4.90;3.50;;;;;;;16.83;80.69;100610.31;103727;279;38793;-71
2023/07/15 04:24:12;;;;;;;5.10;3.30;;;;;;;17.09;81.39;100605.42;103710;279;38523;-73
2023/07/15 04:26:47;;;;;;;5.30;3.20;;;;;;;17.27;80.02;100605.28;103662;279;38356;-71
2023/07/15 04:29:23;;;;;;;7.60;3.90;;;;;;;17.30;79.04;100607.64;103715;279;38222;-71
2023/07/15 04:31:58;;;;;;;7.90;3.60;;;;;;;17.33;78.99;100604.25;103670;279;38294;-74
2023/07/15 04:34:33;;;;;;;6.60;4.00;;;;;;;17.44;79.04;100604.13;103695;279;38235;-74
2023/07/15 04:37:08;;;;;;;7.70;4.90;;;;;;;17.58;79.04;100601.97;103579;279;174883;-72
2023/07/15 04:39:42;;;;;;;10.10;5.80;;;;;;;17.79;78.87;100601.77;103707;279;38251;-72
2023/07/15 04:42:17;;;;;;;9.10;6.50;;;;;;;18.07;78.67;100603.45;103684;279;39150;-73
2023/07/15 04:44:51;;;;;;;11.60;6.00;;;;;;;18.36;78.30;100602.40;103523;279;39543;-73
2023/07/15 04:47:25;;;;;;;9.60;6.60;;;;;;;18.67;77.60;100603.52;103679;279;38637;-73
2023/07/15 04:50:00;;;;;;;9.30;5.80;;;;;;;18.94;76.97;100597.05;103651;279;38419;-73
2023/07/15 04:52:34;;;;;;;10.70;6.70;;;;;;;19.17;75.74;100591.20;103687;279;38583;-71
2023/07/15 04:55:12;;;;;;;9.40;6.00;;;;;;;19.41;75.23;100595.54;103712;279;38404;-72
2023/07/15 04:57:46;;;;;;;7.30;5.70;;;;;;;19.66;74.27;100592.36;103536;279;174747;-73
2023/07/15 05:00:21;;;;;;;8.20;4.80;;;;;;;19.91;72.80;100593.69;103696;279;39060;-73
2023/07/15 05:02:55;;;;;;;6.10;5.10;;;;;;;20.34;72.36;100589.95;103674;279;38988;-72
2023/07/15 05:05:30;;;;;;;6.40;4.70;;;;;;;21.18;72.54;100584.60;103686;279;38287;-74
2023/07/15 05:08:19;;;;;;;9.20;5.80;;;;;;;22.13;69.72;100582.80;103687;279;38530;-74
2023/07/15 05:10:53;;;;;;;8.10;5.40;;;;;;;23.17;65.87;100579.63;103718;279;38489;-74
2023/07/15 05:13:27;;;;;;;6.50;4.40;;;;;;;24.06;62.10;100582.77;103551;279;38661;-71
2023/07/15 05:16:01;;;;;;;5.90;4.50;;;;;;;24.85;58.80;100583.42;103704;279;39919;-73
2023/07/15 05:18:36;;;;;;;4.80;3.90;;;;;;;25.58;56.12;100578.71;103169;279;740199;-73
2023/07/15 05:21:10;;;;;;;4.10;3.60;;;;;;;26.46;53.49;100580.19;103685;279;38535;-75
2023/07/15 05:23:44;;;;;;;5.50;3.80;;;;;;;27.20;50.64;100578.30;103633;279;39462;-73
2023/07/15 05:26:20;;;;;;;5.50;3.60;;;;;;;27.82;48.26;100575.29;103701;279;39510;-79
2023/07/15 05:28:56;;;;;;;3.90;3.60;;;;;;;28.45;46.50;100579.25;103669;279;38228;-73
2023/07/15 05:31:31;;;;;;;5.00;3.20;;;;;;;29.21;44.77;100580.41;103566;279;174284;-71
2023/07/15 05:34:05;;;;;;;3.70;2.80;;;;;;;29.96;42.80;100581.54;103566;279;174304;-72
2023/07/15 05:36:39;;;;;;;6.50;3.20;;;;;;;30.58;40.09;100580.48;103670;279;38546;-73
2023/07/15 05:39:14;;;;;;;4.10;2.90;;;;;;;31.05;37.77;100581.09;103679;279;39683;-73
2023/07/15 05:41:48;;;;;;;4.90;2.70;;;;;;;31.38;37.01;100579.06;103056;279;900881;-73
2023/07/15 05:44:22;;;;;;;6.00;2.90;;;;;;;31.44;35.97;100580.86;103673;279;38373;-75
2023/07/15 05:46:56;;;;;;;3.90;2.30;;;;;;;31.51;35.87;100581.40;103689;279;39444;-73
2023/07/15 05:49:31;;;;;;;4.40;2.40;;;;;;;31.58;33.87;100580.44;103570;279;38534;-72
2023/07/15 05:52:07;;;;;;;3.90;2.50;;;;;;;31.59;34.04;100579.70;103691;279;38274;-73
2023/07/15 05:54:41;;;;;;;3.10;2.40;;;;;;;31.76;33.85;100576.39;103598;280;38617;-73
2023/07/15 05:57:16;;;;;;;3.80;2.40;;;;;;;32.05;33.65;100575.67;103666;279;38249;-72
2023/07/15 05:59:50;;;;;;;2.70;2.20;;;;;;;32.65;32.71;100578.81;103702;279;38268;-74
2023/07/15 06:02:24;;;;;;;3.30;2.60;;;;;;;33.24;32.31;100573.77;103671;279;38744;-73
2023/07/15 06:04:59;;;;;;;2.60;2.40;;;;;;;33.57;31.76;100574.77;103696;279;38387;-73
2023/07/15 06:07:33;;;;;;;2.90;2.20;;;;;;;33.95;30.87;100571.95;103635;279;39432;-73
2023/07/15 06:10:08;;;;;;;3.80;2.60;;;;;;;34.41;29.52;100568.80;103611;279;38613;-73
2023/07/15 06:12:42;;;;;;;4.30;2.40;;;;;;;34.83;28.82;100568.95;103667;279;38243;-72
2023/07/15 06:15:16;;;;;;;3.10;2.30;;;;;;;35.24;28.06;100568.76;103650;279;39655;-74
2023/07/15 06:17:50;;;;;;;3.50;2.30;;;;;;;35.52;27.31;100568.67;103670;279;38519;-74
2023/07/15 06:20:25;;;;;;;2.70;2.40;;;;;;;35.73;26.76;100567.59;103685;279;39733;-73
2023/07/15 06:22:59;;;;;;;3.90;2.60;;;;;;;36.05;26.33;100572.35;103685;279;38860;-75
2023/07/15 06:25:32;;;;;;;5.30;2.30;;;;;;;36.23;25.32;100573.55;103699;279;38764;-75
2023/07/15 06:28:07;;;;;;;3.40;2.50;;;;;;;36.45;25.41;100580.02;103659;279;38289;-76
2023/07/15 06:30:41;;;;;;;3.50;2.50;;;;;;;36.69;24.90;100577.48;103737;279;39416;-73
2023/07/15 06:33:16;;;;;;;7.10;2.60;;;;;;;37.02;24.66;100578.23;103663;279;38496;-75
2023/07/15 06:35:49;;;;;;;4.10;2.20;;;;;;;37.49;23.62;100573.67;103698;279;38697;-73
2023/07/15 06:38:24;;;;;;;2.80;2.40;;;;;;;37.83;22.86;100568.06;103667;279;38265;-75
2023/07/15 06:40:59;;;;;;;2.60;2.40;;;;;;;38.11;22.89;100570.49;103701;279;39861;-74
2023/07/15 06:43:33;;;;;;;2.50;2.30;;;;;;;38.31;22.41;100568.22;103620;279;39989;-75
2023/07/15 06:46:09;;;;;;;3.70;2.20;;;;;;;38.47;21.98;100564.73;103715;279;38262;-73
2023/07/15 06:48:44;;;;;;;4.50;2.70;;;;;;;38.69;21.86;100563.34;103558;279;174726;-73
2023/07/15 06:51:19;;;;;;;2.30;1.90;;;;;;;38.91;21.69;100561.32;103719;279;38266;-74
2023/07/15 06:53:53;;;;;;;4.80;2.10;;;;;;;38.80;21.44;100563.70;103690;279;40044;-75
2023/07/15 06:56:27;;;;;;;5.20;2.40;;;;;;;38.73;21.63;100563.90;103735;279;39742;-74
2023/07/15 06:59:01;;;;;;;3.10;2.40;;;;;;;38.78;21.63;100564.47;103646;279;41471;-74
2023/07/15 07:01:36;;;;;;;5.20;2.30;;;;;;;38.77;21.42;100560.70;103651;279;38715;-74
2023/07/15 07:04:11;;;;;;;3.80;2.20;;;;;;;38.82;21.03;100558.65;103695;279;40041;-74
2023/07/15 07:06:45;;;;;;;3.60;2.10;;;;;;;38.73;20.93;100561.71;103676;279;38852;-75
2023/07/15 07:09:19;;;;;;;2.10;1.90;;;;;;;38.75;20.88;100558.27;103643;279;38714;-74
2023/07/15 07:11:53;;;;;;;2.20;2.00;;;;;;;38.71;20.99;100558.44;103696;279;38284;-73
2023/07/15 07:14:27;;;;;;;4.70;2.30;;;;;;;38.74;21.15;100556.83;103694;279;39653;-74
2023/07/15 07:17:01;;;;;;;3.30;2.20;;;;;;;38.94;20.62;100552.23;103716;279;39617;-73
2023/07/15 07:19:36;;;;;;;2.60;2.10;;;;;;;39.15;20.79;100550.21;103667;279;39964;-74
2023/07/15 07:22:10;;;;;;;2.40;1.80;;;;;;;39.25;20.52;100547.82;103703;279;38550;-75
2023/07/15 07:24:44;;;;;;;3.00;2.10;;;;;;;39.43;20.35;100548.34;103683;279;38389;-75
2023/07/15 07:27:18;;;;;;;3.20;2.00;;;;;;;39.64;19.87;100545.59;103721;279;39487;-76
2023/07/15 07:29:52;;;;;;;3.50;1.90;;;;;;;39.76;19.70;100544.93;103662;279;38257;-73
2023/07/15 07:32:27;;;;;;;4.10;2.20;;;;;;;39.83;19.38;100547.47;103645;279;39428;-74
2023/07/15 07:35:01;;;;;;;5.50;2.70;;;;;;;39.93;20.21;100543.92;103738;279;38795;-73
2023/07/15 07:37:35;;;;;;;3.10;2.20;;;;;;;40.08;19.76;100544.02;103672;279;38470;-74
2023/07/15 07:40:12;;;;;;;2.60;2.00;;;;;;;40.20;19.70;100542.11;103699;279;38293;-74
2023/07/15 07:42:46;;;;;;;2.40;2.10;;;;;;;40.29;19.28;100544.27;103685;279;38321;-73
2023/07/15 07:45:22;;;;;;;3.20;2.10;;;;;;;40.33;19.52;100542.14;103685;279;39798;-73
2023/07/15 07:47:56;;;;;;;2.80;2.00;;;;;;;40.40;19.52;100543.56;103697;279;38469;-74
2023/07/15 07:50:31;;;;;;;3.10;2.10;;;;;;;40.42;19.30;100541.23;103642;279;38434;-74
2023/07/15 07:53:05;;;;;;;4.50;2.80;;;;;;;40.33;19.24;100539.44;103693;279;38251;-73
2023/07/15 07:55:40;;;;;;;5.40;2.20;;;;;;;40.26;19.65;100532.80;103673;279;39376;-73
2023/07/15 07:58:14;;;;;;;3.60;2.20;;;;;;;40.36;19.78;100534.39;103706;279;39677;-73
2023/07/15 08:00:48;;;;;;;3.30;2.30;;;;;;;40.53;19.43;100534.48;103685;279;39811;-72
2023/07/15 08:03:22;;;;;;;3.50;2.60;;;;;;;40.73;18.68;100534.56;103697;279;38376;-74
2023/07/15 08:05:58;;;;;;;2.50;2.20;;;;;;;40.62;18.43;100544.90;103666;279;39608;-73
2023/07/15 08:08:32;;;;;;;3.80;2.40;;;;;;;40.73;18.65;100551.03;103695;279;38354;-73
2023/07/15 08:11:09;;;;;;;2.80;2.40;;;;;;;40.89;18.48;100544.22;103706;279;38509;-75
2023/07/15 08:13:44;;;;;;;3.70;2.20;;;;;;;40.95;18.69;100540.24;103717;279;39648;-75
2023/07/15 08:16:34;;;;;;;2.10;1.90;;;;;;;41.07;18.29;100537.44;103661;279;39078;-73
2023/07/15 08:19:09;;;;;;;2.40;2.00;;;;;;;41.19;18.49;100536.81;103695;279;39933;-72
2023/07/15 08:21:43;;;;;;;3.20;2.10;;;;;;;41.38;18.06;100533.27;103705;279;38888;-74
2023/07/15 08:24:17;;;;;;;5.10;2.30;;;;;;;41.41;17.82;100530.83;103681;279;38953;-73
2023/07/15 08:26:52;;;;;;;2.50;2.20;;;;;;;41.40;18.03;100537.36;103671;279;39380;-74
2023/07/15 08:29:26;;;;;;;3.60;2.20;;;;;;;41.51;17.31;100531.59;103650;279;39448;-73
2023/07/15 08:32:01;;;;;;;2.30;2.10;;;;;;;41.57;17.68;100525.77;103670;279;38541;-73
2023/07/15 08:34:36;;;;;;;2.90;2.00;;;;;;;41.64;17.66;100524.03;103728;279;39429;-73
2023/07/15 08:37:12;;;;;;;4.90;2.30;;;;;;;41.59;17.86;100523.33;103652;279;38265;-72
2023/07/15 08:39:46;;;;;;;3.00;2.40;;;;;;;41.65;17.76;100518.71;103690;279;38258;-74
2023/07/15 08:42:21;;;;;;;2.50;2.00;;;;;;;41.71;17.97;100517.55;103711;279;38548;-73
2023/07/15 08:44:55;;;;;;;3.60;2.00;;;;;;;41.86;17.40;100516.51;103685;279;39649;-73
2023/07/15 08:47:29;;;;;;;2.50;1.90;;;;;;;41.99;17.08;100511.73;103673;279;38766;-72
2023/07/15 08:50:07;;;;;;;2.00;1.90;;;;;;;42.12;16.87;100514.41;103670;279;39588;-72
2023/07/15 08:52:39;;;;;;;;;;;;;;;42.09;16.68;100519.71;103735;279;39534;-74
2023/07/15 08:55:14;;;;;;;3.70;2.40;;;;;;;41.91;17.28;100514.30;103696;279;39652;-73
2023/07/15 08:57:49;;;;;;;3.30;1.80;;;;;;;42.06;17.26;100514.54;103723;279;38274;-74
2023/07/15 09:00:24;;;;;;;1.90;1.80;;;;;;;42.14;17.03;100506.45;103724;279;38315;-73
2023/07/15 09:02:58;;;;;;;2.70;2.10;;;;;;;42.17;17.18;100506.20;103562;279;38402;-75
2023/07/15 09:05:32;;;;;;;2.60;2.20;;;;;;;42.25;17.22;100503.20;103725;279;38240;-74
2023/07/15 09:08:15;;;;;;;2.50;2.00;;;;;;;42.37;17.22;100503.39;103652;279;38793;-73
2023/07/15 09:10:56;;;;;;;3.20;2.40;;;;;;;42.55;17.15;100502.16;103659;279;38657;-73
2023/07/15 09:13:33;;;;;;;3.40;2.10;;;;;;;42.56;16.48;100502.72;103653;279;38255;-73
2023/07/15 09:16:07;;;;;;;5.10;2.10;;;;;;;42.26;16.40;100501.93;103689;279;38679;-73
2023/07/15 09:18:43;;;;;;;2.80;1.80;;;;;;;41.89;17.08;100493.88;103041;279;884951;-72
2023/07/15 09:21:21;;;;;;;2.60;2.10;;;;;;;41.69;17.69;100495.67;103687;279;38465;-73
2023/07/15 09:23:56;;;;;;;2.40;2.10;;;;;;;41.43;17.78;100490.09;103685;279;38865;-75
2023/07/15 09:26:31;;;;;;;2.90;2.20;;;;;;;41.08;17.94;100486.17;103664;279;38839;-72
2023/07/15 09:29:10;;;;;;;2.60;2.10;;;;;;;40.44;18.21;100486.52;103701;268;38545;-74
2023/07/15 09:31:44;;;;;;;6.60;2.50;;;;;;;39.88;18.62;100479.77;103685;279;38450;-73
2023/07/15 09:34:21;;;;;;;3.10;2.10;;;;;;;39.50;19.64;100482.86;103671;279;38549;-72
2023/07/15 09:36:56;;;;;;;4.60;2.40;;;;;;;39.20;19.70;100480.55;103705;279;38755;-72
2023/07/15 09:39:32;;;;;;;2.80;2.30;;;;;;;38.86;19.94;100479.67;103725;279;39613;-74
2023/07/15 09:42:09;;;;;;;3.70;1.90;;;;;;;38.52;20.65;100479.14;103683;279;38282;-75
2023/07/15 09:44:44;;;;;;;4.30;2.20;;;;;;;38.27;20.72;100476.92;103693;279;39680;-74
2023/07/15 09:47:20;;;;;;;2.30;2.10;;;;;;;37.96;21.07;100481.48;103711;279;40398;-75
2023/07/15 09:49:54;;;;;;;5.70;2.40;;;;;;;37.69;21.09;100480.51;103675;279;38251;-75
2023/07/15 09:52:31;;;;;;;2.50;2.00;;;;;;;37.31;21.40;100474.30;102953;279;887409;-73
2023/07/15 09:55:10;;;;;;;2.70;2.20;;;;;;;37.09;21.84;100474.05;103715;279;38424;-73
2023/07/15 09:57:44;;;;;;;2.90;2.20;;;;;;;36.96;21.95;100468.33;103672;279;39403;-75
2023/07/15 10:00:19;;;;;;;3.40;2.40;;;;;;;36.80;21.97;100473.84;103709;279;38522;-73
2023/07/15 10:02:56;;;;;;;2.90;2.10;;;;;;;36.61;22.39;100475.32;103720;279;38368;-75
2023/07/15 10:05:31;;;;;;;3.20;2.20;;;;;;;36.50;22.77;100465.27;103668;279;38305;-74
2023/07/15 10:08:07;;;;;;;2.60;2.00;;;;;;;36.33;22.66;100462.49;103661;279;38409;-75
2023/07/15 10:10:43;;;;;;;2.80;2.00;;;;;;;36.14;22.53;100459.54;103731;279;38240;-72
2023/07/15 10:13:19;;;;;;;3.50;2.50;;;;;;;35.89;22.93;100459.44;103680;279;38558;-71
2023/07/15 10:15:54;;;;;;;3.80;2.80;;;;;;;35.80;22.97;100457.83;103674;279;39342;-73
2023/07/15 10:18:29;;;;;;;3.20;2.40;;;;;;;35.66;23.34;100455.13;103688;279;39429;-74
2023/07/15 10:21:05;;;;;;;5.00;2.70;;;;;;;35.66;23.45;100454.04;103712;278;38390;-73
2023/07/15 10:23:40;;;;;;;3.30;2.40;;;;;;;35.55;23.05;100450.80;103785;278;38442;-73
2023/07/15 10:26:16;;;;;;;3.40;2.10;;;;;;;35.41;23.62;100446.61;103713;278;40223;-75
2023/07/15 10:28:55;;;;;;;4.00;2.50;;;;;;;35.31;24.25;100447.96;103805;278;38573;-75
2023/07/15 10:31:29;;;;;;;3.20;2.20;;;;;;;35.24;24.45;100442.06;103776;279;39365;-73
2023/07/15 10:34:05;;;;;;;3.20;2.50;;;;;;;35.23;24.34;100443.24;103671;279;38231;-74
2023/07/15 10:36:44;;;;;;;4.70;2.80;;;;;;;35.19;24.43;100442.39;103777;278;38254;-75
2023/07/15 10:39:20;;;;;;;2.50;2.30;;;;;;;35.11;24.41;100441.47;103813;278;39645;-74
2023/07/15 10:41:56;;;;;;;3.10;2.70;;;;;;;35.09;24.71;100439.02;103683;279;38480;-73
2023/07/15 10:44:31;;;;;;;3.40;2.50;;;;;;;35.08;24.85;100439.31;103800;279;38476;-72
2023/07/15 10:47:08;;;;;;;5.20;2.60;;;;;;;35.05;24.69;100441.03;103813;278;38809;-76
2023/07/15 10:49:43;;;;;;;4.50;3.00;;;;;;;34.90;24.50;100440.77;103813;279;38811;-73
2023/07/15 10:52:21;;;;;;;2.70;2.30;;;;;;;34.75;24.52;100433.40;103746;278;39571;-76
2023/07/15 10:54:57;;;;;;;2.80;2.30;;;;;;;34.65;24.48;100432.11;103810;278;39437;-74
2023/07/15 10:57:32;;;;;;;3.50;2.40;;;;;;;34.47;24.69;100426.67;103779;278;39172;-74
2023/07/15 11:00:11;;;;;;;3.10;2.40;;;;;;;34.38;24.80;100428.02;103837;278;38390;-73
2023/07/15 11:02:46;;;;;;;2.60;2.30;;;;;;;34.39;25.35;100429.48;103844;278;38487;-72
2023/07/15 11:05:23;;;;;;;3.10;2.30;;;;;;;34.36;25.21;100430.94;103798;278;38378;-73
2023/07/15 11:08:00;;;;;;;2.60;2.20;;;;;;;34.28;25.29;100428.61;103775;278;38225;-75
2023/07/15 11:10:43;;;;;;;2.60;2.40;;;;;;;34.26;25.43;100428.92;103828;278;38252;-73
2023/07/15 11:13:18;;;;;;;3.80;2.60;;;;;;;34.16;25.01;100420.27;103788;278;38896;-74
2023/07/15 11:15:54;;;;;;;3.50;2.50;;;;;;;34.06;25.41;100417.67;103687;279;39834;-74
2023/07/15 11:18:30;;;;;;;4.90;2.30;;;;;;;33.95;25.33;100417.41;103823;278;38822;-73
2023/07/15 11:21:05;;;;;;;3.50;2.20;;;;;;;33.91;25.58;100412.30;103755;279;39694;-73
2023/07/15 11:23:39;;;;;;;2.60;2.30;;;;;;;33.92;25.61;100414.29;103706;279;38606;-71
2023/07/15 11:26:14;;;;;;;4.40;2.20;;;;;;;33.77;25.78;100407.61;103668;279;39843;-72
2023/07/15 11:28:54;;;;;;;3.30;2.50;;;;;;;33.72;26.32;100410.76;103714;279;39383;-72
2023/07/15 11:31:29;;;;;;;3.20;2.30;;;;;;;33.70;26.28;100406.46;103703;279;38546;-73
2023/07/15 11:34:03;;;;;;;3.50;2.30;;;;;;;33.69;26.12;100399.35;103670;279;38704;-72
2023/07/15 11:36:38;;;;;;;7.80;2.40;;;;;;;33.71;26.99;100389.46;103720;279;38435;-74
2023/07/15 11:39:12;;;;;;;2.80;2.40;;;;;;;33.78;26.77;100390.13;103679;279;39396;-73
2023/07/15 11:41:46;;;;;;;2.60;2.30;;;;;;;33.75;26.29;100391.17;103702;279;38384;-72
2023/07/15 11:44:22;;;;;;;2.60;1.80;;;;;;;33.71;25.73;100383.70;103683;279;38247;-72
2023/07/15 11:46:59;;;;;;;3.30;2.00;;;;;;;33.59;26.50;100385.25;103695;279;38288;-71
2023/07/15 11:49:44;;;;;;;9.30;2.30;;;;;;;33.53;26.40;100396.27;103651;279;38341;-74
2023/07/15 11:52:24;;;;;;;4.90;2.40;;;;;;;33.56;26.00;100390.14;103669;279;38738;-71
2023/07/15 11:54:59;;;;;;;4.10;2.30;;;;;;;33.61;26.07;100390.46;103572;279;38389;-75
2023/07/15 11:57:33;;;;;;;4.10;2.50;;;;;;;33.59;26.17;100387.71;103696;279;38320;-77
2023/07/15 12:00:26;;;;;;;3.80;2.20;;;;;;;33.60;26.56;100392.39;103113;279;886485;-74